sensor_id;sensor_type;location;lat;lon;timestamp;temperature;humidity
35305;DHT22;26433;48.034;-1.764;2023-04-24T05:04:21;11.80;75.40
35305;DHT22;26433;48.034;-1.764;2023-04-24T05:09:25;11.70;75.50
35305;DHT22;26433;48.034;-1.764;2023-04-24T05:14:30;11.60;75.60
35305;DHT22;26433;48.034;-1.764;2023-04-24T05:19:35;11.60;75.70
35305;DHT22;26433;48.034;-1.764;2023-04-24T05:24:41;11.60;75.80
35305;DHT22;26433;48.034;-1.764;2023-04-24T05:29:45;11.40;75.80
35305;DHT22;26433;48.034;-1.764;2023-04-24T05:34:50;11.20;76.40
35305;DHT22;26433;48.034;-1.764;2023-04-24T05:39:54;11.10;77.00
35305;DHT22;26433;48.034;-1.764;2023-04-24T05:44:57;11.00;77.60
35305;DHT22;26433;48.034;-1.764;2023-04-24T05:50:02;10.90;77.40
35305;DHT22;26433;48.034;-1.764;2023-04-24T05:55:06;10.90;77.20
35305;DHT22;26433;48.034;-1.764;2023-04-24T06:00:11;10.90;77.10
35305;DHT22;26433;48.034;-1.764;2023-04-24T06:05:20;11.10;76.90
35305;DHT22;26433;48.034;-1.764;2023-04-24T06:10:26;11.10;76.20
35305;DHT22;26433;48.034;-1.764;2023-04-24T06:15:30;11.20;76.00
35305;DHT22;26433;48.034;-1.764;2023-04-24T06:20:35;11.20;76.10
35305;DHT22;26433;48.034;-1.764;2023-04-24T06:25:39;11.40;75.80
35305;DHT22;26433;48.034;-1.764;2023-04-24T06:30:45;11.50;75.30
35305;DHT22;26433;48.034;-1.764;2023-04-24T06:35:50;11.60;74.90
35305;DHT22;26433;48.034;-1.764;2023-04-24T06:40:53;11.80;74.50
35305;DHT22;26433;48.034;-1.764;2023-04-24T06:45:56;11.90;74.20
35305;DHT22;26433;48.034;-1.764;2023-04-24T06:51:01;12.10;74.10
35305;DHT22;26433;48.034;-1.764;2023-04-24T06:56:05;12.20;73.90
35305;DHT22;26433;48.034;-1.764;2023-04-24T07:01:08;12.50;78.10
35305;DHT22;26433;48.034;-1.764;2023-04-24T07:06:13;12.50;77.60
35305;DHT22;26433;48.034;-1.764;2023-04-24T07:11:18;12.50;76.60
35305;DHT22;26433;48.034;-1.764;2023-04-24T07:16:22;12.60;76.40
35305;DHT22;26433;48.034;-1.764;2023-04-24T07:21:27;12.70;76.30
35305;DHT22;26433;48.034;-1.764;2023-04-24T07:26:30;12.80;76.40
35305;DHT22;26433;48.034;-1.764;2023-04-24T07:31:34;12.90;76.40
35305;DHT22;26433;48.034;-1.764;2023-04-24T07:36:39;13.10;76.20
35305;DHT22;26433;48.034;-1.764;2023-04-24T07:41:43;13.10;76.40
35305;DHT22;26433;48.034;-1.764;2023-04-24T07:46:47;13.20;77.20
35305;DHT22;26433;48.034;-1.764;2023-04-24T07:51:52;13.30;76.40
35305;DHT22;26433;48.034;-1.764;2023-04-24T07:56:55;13.40;72.80
35305;DHT22;26433;48.034;-1.764;2023-04-24T08:01:59;13.60;71.80
35305;DHT22;26433;48.034;-1.764;2023-04-24T08:07:04;14.00;70.90
35305;DHT22;26433;48.034;-1.764;2023-04-24T08:12:08;14.40;70.60
35305;DHT22;26433;48.034;-1.764;2023-04-24T08:17:11;14.60;70.40
35305;DHT22;26433;48.034;-1.764;2023-04-24T08:22:16;14.80;69.50
35305;DHT22;26433;48.034;-1.764;2023-04-24T08:27:19;15.20;69.40
35305;DHT22;26433;48.034;-1.764;2023-04-24T08:32:22;15.40;69.20
35305;DHT22;26433;48.034;-1.764;2023-04-24T08:37:27;15.60;69.00
35305;DHT22;26433;48.034;-1.764;2023-04-24T08:42:31;15.90;68.30
35305;DHT22;26433;48.034;-1.764;2023-04-24T08:47:35;16.00;68.40
35305;DHT22;26433;48.034;-1.764;2023-04-24T08:52:40;16.30;67.80
35305;DHT22;26433;48.034;-1.764;2023-04-24T08:57:44;16.70;67.10
35305;DHT22;26433;48.034;-1.764;2023-04-24T09:02:50;17.10;66.00
35305;DHT22;26433;48.034;-1.764;2023-04-24T09:07:55;17.40;65.60
35305;DHT22;26433;48.034;-1.764;2023-04-24T09:12:59;17.90;65.10
35305;DHT22;26433;48.034;-1.764;2023-04-24T09:18:04;18.20;64.70
35305;DHT22;26433;48.034;-1.764;2023-04-24T09:23:09;18.40;63.70
35305;DHT22;26433;48.034;-1.764;2023-04-24T09:28:18;18.40;64.20
35305;DHT22;26433;48.034;-1.764;2023-04-24T09:33:21;18.20;64.00
35305;DHT22;26433;48.034;-1.764;2023-04-24T09:38:31;17.90;64.00
35305;DHT22;26433;48.034;-1.764;2023-04-24T09:43:35;17.90;64.60
35305;DHT22;26433;48.034;-1.764;2023-04-24T09:48:38;17.60;63.90
35305;DHT22;26433;48.034;-1.764;2023-04-24T09:53:46;17.60;64.10
35305;DHT22;26433;48.034;-1.764;2023-04-24T09:58:50;17.50;64.20
35305;DHT22;26433;48.034;-1.764;2023-04-24T10:03:54;17.30;64.30
35305;DHT22;26433;48.034;-1.764;2023-04-24T10:08:59;17.10;64.50
35305;DHT22;26433;48.034;-1.764;2023-04-24T10:14:02;16.60;64.90
35305;DHT22;26433;48.034;-1.764;2023-04-24T10:19:06;16.20;65.20
35305;DHT22;26433;48.034;-1.764;2023-04-24T10:24:11;16.10;66.00
35305;DHT22;26433;48.034;-1.764;2023-04-24T10:29:17;15.90;66.40
35305;DHT22;26433;48.034;-1.764;2023-04-24T10:34:21;15.80;66.60
35305;DHT22;26433;48.034;-1.764;2023-04-24T10:39:26;15.70;65.90
35305;DHT22;26433;48.034;-1.764;2023-04-24T10:44:35;15.90;66.50
35305;DHT22;26433;48.034;-1.764;2023-04-24T10:49:39;16.20;65.40
35305;DHT22;26433;48.034;-1.764;2023-04-24T10:54:45;16.40;64.70
35305;DHT22;26433;48.034;-1.764;2023-04-24T10:59:49;16.50;64.40
35305;DHT22;26433;48.034;-1.764;2023-04-24T11:04:53;16.40;63.90
35305;DHT22;26433;48.034;-1.764;2023-04-24T11:09:58;16.30;65.10
35305;DHT22;26433;48.034;-1.764;2023-04-24T11:15:03;16.50;64.90
35305;DHT22;26433;48.034;-1.764;2023-04-24T11:20:07;16.80;64.40
35305;DHT22;26433;48.034;-1.764;2023-04-24T11:25:32;17.10;63.40
35305;DHT22;26433;48.034;-1.764;2023-04-24T11:30:36;17.70;62.50
35305;DHT22;26433;48.034;-1.764;2023-04-24T11:35:42;17.80;60.80
35305;DHT22;26433;48.034;-1.764;2023-04-24T11:40:47;17.80;61.70
35305;DHT22;26433;48.034;-1.764;2023-04-24T11:45:51;18.00;61.80
35305;DHT22;26433;48.034;-1.764;2023-04-24T11:50:56;18.40;60.50
35305;DHT22;26433;48.034;-1.764;2023-04-24T11:56:03;18.40;60.50
35305;DHT22;26433;48.034;-1.764;2023-04-24T12:01:06;18.40;60.40
35305;DHT22;26433;48.034;-1.764;2023-04-24T12:06:10;18.50;60.40
35305;DHT22;26433;48.034;-1.764;2023-04-24T12:11:16;18.60;60.40
35305;DHT22;26433;48.034;-1.764;2023-04-24T12:16:20;18.60;59.70
35305;DHT22;26433;48.034;-1.764;2023-04-24T12:21:24;18.50;60.20
35305;DHT22;26433;48.034;-1.764;2023-04-24T12:26:30;18.20;59.70
35305;DHT22;26433;48.034;-1.764;2023-04-24T12:31:33;18.10;60.40
35305;DHT22;26433;48.034;-1.764;2023-04-24T12:36:37;17.80;60.60
35305;DHT22;26433;48.034;-1.764;2023-04-24T12:41:50;17.90;60.70
35305;DHT22;26433;48.034;-1.764;2023-04-24T12:46:53;18.10;60.60
35305;DHT22;26433;48.034;-1.764;2023-04-24T12:51:57;18.60;59.50
35305;DHT22;26433;48.034;-1.764;2023-04-24T12:57:01;18.50;58.80
35305;DHT22;26433;48.034;-1.764;2023-04-24T13:02:05;18.90;58.10
35305;DHT22;26433;48.034;-1.764;2023-04-24T13:07:09;19.50;57.80
35305;DHT22;26433;48.034;-1.764;2023-04-24T13:12:14;19.80;57.20
35305;DHT22;26433;48.034;-1.764;2023-04-24T13:17:17;20.40;55.60
35305;DHT22;26433;48.034;-1.764;2023-04-24T13:22:21;20.30;54.70
35305;DHT22;26433;48.034;-1.764;2023-04-24T13:27:25;20.40;55.90
35305;DHT22;26433;48.034;-1.764;2023-04-24T13:32:29;20.50;55.30
35305;DHT22;26433;48.034;-1.764;2023-04-24T13:37:32;20.70;54.40
35305;DHT22;26433;48.034;-1.764;2023-04-24T13:42:37;20.40;55.30
35305;DHT22;26433;48.034;-1.764;2023-04-24T13:47:40;20.30;55.70
35305;DHT22;26433;48.034;-1.764;2023-04-24T13:52:44;20.50;55.30
35305;DHT22;26433;48.034;-1.764;2023-04-24T13:57:49;21.00;54.70
35305;DHT22;26433;48.034;-1.764;2023-04-24T14:02:54;21.40;53.90
35305;DHT22;26433;48.034;-1.764;2023-04-24T14:07:57;20.80;53.50
35305;DHT22;26433;48.034;-1.764;2023-04-24T14:13:02;20.30;55.00
35305;DHT22;26433;48.034;-1.764;2023-04-24T14:18:06;20.20;55.20
35305;DHT22;26433;48.034;-1.764;2023-04-24T14:23:09;20.50;54.70
35305;DHT22;26433;48.034;-1.764;2023-04-24T14:28:14;20.40;54.50
35305;DHT22;26433;48.034;-1.764;2023-04-24T14:33:17;20.60;53.90
35305;DHT22;26433;48.034;-1.764;2023-04-24T14:38:21;20.30;54.00
35305;DHT22;26433;48.034;-1.764;2023-04-24T14:43:26;19.80;54.70
35305;DHT22;26433;48.034;-1.764;2023-04-24T14:48:29;19.30;55.60
35305;DHT22;26433;48.034;-1.764;2023-04-24T14:53:33;19.10;56.00
35305;DHT22;26433;48.034;-1.764;2023-04-24T14:58:38;18.50;56.10
35305;DHT22;26433;48.034;-1.764;2023-04-24T15:03:42;21.00;59.50
35305;DHT22;26433;48.034;-1.764;2023-04-24T15:08:46;17.30;59.10
35305;DHT22;26433;48.034;-1.764;2023-04-24T15:13:52;16.90;59.90
35305;DHT22;26433;48.034;-1.764;2023-04-24T15:18:56;16.70;60.20
35305;DHT22;26433;48.034;-1.764;2023-04-24T15:23:59;16.80;59.50
35305;DHT22;26433;48.034;-1.764;2023-04-24T15:29:04;17.70;59.80
35305;DHT22;26433;48.034;-1.764;2023-04-24T15:34:07;17.40;59.10
35305;DHT22;26433;48.034;-1.764;2023-04-24T15:39:11;17.30;58.70
35305;DHT22;26433;48.034;-1.764;2023-04-24T15:44:16;17.30;59.60
35305;DHT22;26433;48.034;-1.764;2023-04-24T15:49:19;17.20;59.90
35305;DHT22;26433;48.034;-1.764;2023-04-24T15:54:23;17.10;60.20
35305;DHT22;26433;48.034;-1.764;2023-04-24T15:59:27;17.00;60.60
35305;DHT22;26433;48.034;-1.764;2023-04-24T16:04:32;17.00;60.70
35305;DHT22;26433;48.034;-1.764;2023-04-24T16:09:36;16.90;60.90
35305;DHT22;26433;48.034;-1.764;2023-04-24T16:14:41;16.80;60.70
35305;DHT22;26433;48.034;-1.764;2023-04-24T16:19:44;16.70;61.30
35305;DHT22;26433;48.034;-1.764;2023-04-24T16:24:47;17.70;61.40
35305;DHT22;26433;48.034;-1.764;2023-04-24T16:29:52;16.70;61.50
35305;DHT22;26433;48.034;-1.764;2023-04-24T16:34:58;16.60;61.70
35305;DHT22;26433;48.034;-1.764;2023-04-24T16:40:01;16.50;61.30
35305;DHT22;26433;48.034;-1.764;2023-04-24T16:45:10;16.40;62.00
35305;DHT22;26433;48.034;-1.764;2023-04-24T16:50:13;16.50;62.00
35305;DHT22;26433;48.034;-1.764;2023-04-24T16:55:17;16.70;62.00
35305;DHT22;26433;48.034;-1.764;2023-04-24T17:00:21;16.80;61.60
35305;DHT22;26433;48.034;-1.764;2023-04-24T17:05:25;16.80;61.60
35305;DHT22;26433;48.034;-1.764;2023-04-24T17:10:28;16.60;62.00
35305;DHT22;26433;48.034;-1.764;2023-04-24T17:15:33;16.60;62.60
35305;DHT22;26433;48.034;-1.764;2023-04-24T17:20:37;16.40;62.40
35305;DHT22;26433;48.034;-1.764;2023-04-24T17:25:41;16.40;62.60
35305;DHT22;26433;48.034;-1.764;2023-04-24T17:30:46;16.40;62.00
35305;DHT22;26433;48.034;-1.764;2023-04-24T17:35:49;16.50;62.60
35305;DHT22;26433;48.034;-1.764;2023-04-24T17:40:52;16.40;61.80
35305;DHT22;26433;48.034;-1.764;2023-04-24T17:45:57;16.40;61.70
35305;DHT22;26433;48.034;-1.764;2023-04-24T17:51:01;16.50;62.20
35305;DHT22;26433;48.034;-1.764;2023-04-24T17:56:04;16.40;61.90
35305;DHT22;26433;48.034;-1.764;2023-04-24T18:01:09;16.20;62.70
35305;DHT22;26433;48.034;-1.764;2023-04-24T18:06:13;16.20;62.80
35305;DHT22;26433;48.034;-1.764;2023-04-24T18:11:18;16.00;63.20
35305;DHT22;26433;48.034;-1.764;2023-04-24T18:16:23;15.90;63.30
35305;DHT22;26433;48.034;-1.764;2023-04-24T18:21:27;15.90;63.10
35305;DHT22;26433;48.034;-1.764;2023-04-24T18:26:30;15.90;63.20
35305;DHT22;26433;48.034;-1.764;2023-04-24T18:31:35;15.90;63.40
35305;DHT22;26433;48.034;-1.764;2023-04-24T18:36:38;15.80;63.40
35305;DHT22;26433;48.034;-1.764;2023-04-24T18:41:42;14.70;62.50
35305;DHT22;26433;48.034;-1.764;2023-04-24T18:46:46;15.70;63.60
35305;DHT22;26433;48.034;-1.764;2023-04-24T18:51:50;15.60;63.70
35305;DHT22;26433;48.034;-1.764;2023-04-24T18:56:55;15.50;64.00
35305;DHT22;26433;48.034;-1.764;2023-04-24T19:02:00;15.40;64.20
35305;DHT22;26433;48.034;-1.764;2023-04-24T19:07:04;15.30;64.20
35305;DHT22;26433;48.034;-1.764;2023-04-24T19:12:07;15.20;64.10
35305;DHT22;26433;48.034;-1.764;2023-04-24T19:17:12;16.70;65.40
35305;DHT22;26433;48.034;-1.764;2023-04-24T19:22:15;14.90;65.10
35305;DHT22;26433;48.034;-1.764;2023-04-24T19:27:18;14.80;64.80
35305;DHT22;26433;48.034;-1.764;2023-04-24T19:32:23;14.70;65.40
35305;DHT22;26433;48.034;-1.764;2023-04-24T19:37:27;14.70;64.90
35305;DHT22;26433;48.034;-1.764;2023-04-24T19:42:32;14.60;65.10
35305;DHT22;26433;48.034;-1.764;2023-04-24T19:47:46;14.50;65.20
35305;DHT22;26433;48.034;-1.764;2023-04-24T19:52:49;14.50;65.00
35305;DHT22;26433;48.034;-1.764;2023-04-24T19:57:53;14.40;65.20
35305;DHT22;26433;48.034;-1.764;2023-04-24T20:02:57;14.40;66.10
35305;DHT22;26433;48.034;-1.764;2023-04-24T20:08:01;14.30;66.20
35305;DHT22;26433;48.034;-1.764;2023-04-24T20:13:05;14.20;65.80
35305;DHT22;26433;48.034;-1.764;2023-04-24T20:18:09;14.10;65.90
35305;DHT22;26433;48.034;-1.764;2023-04-24T20:23:13;14.10;66.50
35305;DHT22;26433;48.034;-1.764;2023-04-24T20:28:16;14.00;66.00
35305;DHT22;26433;48.034;-1.764;2023-04-24T20:33:21;13.90;65.80
35305;DHT22;26433;48.034;-1.764;2023-04-24T20:38:24;14.10;66.30
35305;DHT22;26433;48.034;-1.764;2023-04-24T20:43:28;14.00;66.60
35305;DHT22;26433;48.034;-1.764;2023-04-24T20:48:33;14.00;66.90
35305;DHT22;26433;48.034;-1.764;2023-04-24T20:53:36;14.10;67.40
35305;DHT22;26433;48.034;-1.764;2023-04-24T20:58:40;13.80;66.80
35305;DHT22;26433;48.034;-1.764;2023-04-24T21:03:44;13.80;67.30
35305;DHT22;26433;48.034;-1.764;2023-04-24T21:08:48;13.90;67.10
35305;DHT22;26433;48.034;-1.764;2023-04-24T21:13:52;13.90;66.70
35305;DHT22;26433;48.034;-1.764;2023-04-24T21:18:56;14.00;67.30
35305;DHT22;26433;48.034;-1.764;2023-04-24T21:24:00;13.90;67.40
35305;DHT22;26433;48.034;-1.764;2023-04-24T21:29:05;13.20;66.60
35305;DHT22;26433;48.034;-1.764;2023-04-24T21:34:10;13.80;66.80
35305;DHT22;26433;48.034;-1.764;2023-04-24T21:39:13;13.90;66.80
35305;DHT22;26433;48.034;-1.764;2023-04-24T21:44:17;12.70;66.40
35305;DHT22;26433;48.034;-1.764;2023-04-24T21:49:21;13.60;68.20
35305;DHT22;26433;48.034;-1.764;2023-04-24T21:54:25;13.50;67.70
35305;DHT22;26433;48.034;-1.764;2023-04-24T21:59:28;13.30;68.00
35305;DHT22;26433;48.034;-1.764;2023-04-24T22:04:33;13.20;68.80
35305;DHT22;26433;48.034;-1.764;2023-04-24T22:09:36;13.10;68.40
35305;DHT22;26433;48.034;-1.764;2023-04-24T22:14:40;12.90;69.30
35305;DHT22;26433;48.034;-1.764;2023-04-24T22:19:45;12.80;68.90
35305;DHT22;26433;48.034;-1.764;2023-04-24T22:24:48;12.70;69.10
35305;DHT22;26433;48.034;-1.764;2023-04-24T22:29:51;12.50;69.30
